createdAt,value
2023-10-09T00:00:37.295Z,4.28
2023-10-09T00:03:07.765Z,5.20
2023-10-09T00:05:47.383Z,7.13
2023-10-09T00:08:19.799Z,4.97
2023-10-09T00:10:50.493Z,6.50
2023-10-09T00:13:19.739Z,4.20
2023-10-09T00:15:53.532Z,6.22
2023-10-09T00:18:30.343Z,4.43
2023-10-09T00:21:12.933Z,4.38
2023-10-09T00:23:41.778Z,5.78
2023-10-09T00:26:17.420Z,5.47
2023-10-09T00:28:53.272Z,2.13
2023-10-09T00:31:31.274Z,2.55
2023-10-09T00:34:09.087Z,7.47
2023-10-09T00:36:51.509Z,5.47
2023-10-09T00:39:34.552Z,6.05
2023-10-09T00:42:04.223Z,5.28
2023-10-09T00:44:39.729Z,5.07
2023-10-09T00:47:21.587Z,4.70
2023-10-09T00:49:52.044Z,3.45
2023-10-09T00:52:30.608Z,4.68
2023-10-09T00:55:01.984Z,4.85
2023-10-09T00:57:34.865Z,3.70
2023-10-09T01:00:14.127Z,11.10
2023-10-09T01:02:45.366Z,6.93
2023-10-09T01:05:21.007Z,3.22
2023-10-09T01:07:59.229Z,6.10
2023-10-09T01:10:35.170Z,6.25
2023-10-09T01:13:04.349Z,7.00
2023-10-09T01:15:45.982Z,6.10
2023-10-09T01:18:15.999Z,7.47
2023-10-09T01:20:46.696Z,5.68
2023-10-09T01:23:16.721Z,4.95
2023-10-09T01:25:46.330Z,5.07
2023-10-09T01:28:16.819Z,6.50
2023-10-09T01:30:46.894Z,6.70
2023-10-09T01:33:23.563Z,4.07
2023-10-09T01:35:57.248Z,4.20
2023-10-09T01:38:41.454Z,5.07
2023-10-09T01:41:17.075Z,7.35
2023-10-09T01:43:46.161Z,5.78
2023-10-09T01:46:17.527Z,6.03
2023-10-09T01:48:47.847Z,9.18
2023-10-09T01:51:18.290Z,6.97
2023-10-09T01:53:48.941Z,7.38
2023-10-09T01:56:17.247Z,7.13
2023-10-09T01:58:48.455Z,6.05
2023-10-09T02:01:17.103Z,7.03
2023-10-09T02:03:46.372Z,5.15
2023-10-09T02:06:31.057Z,6.72
2023-10-09T02:09:00.664Z,4.53
2023-10-09T02:11:40.330Z,4.60
2023-10-09T02:14:20.336Z,7.25
2023-10-09T02:17:03.581Z,7.63
2023-10-09T02:19:35.371Z,7.32
2023-10-09T02:22:13.602Z,5.15
2023-10-09T02:24:51.077Z,6.30
2023-10-09T02:27:37.308Z,4.95
2023-10-09T02:30:16.327Z,7.28
2023-10-09T02:32:45.659Z,6.00
2023-10-09T02:35:37.662Z,7.75
2023-10-09T02:38:08.346Z,6.85
2023-10-09T02:41:01.649Z,5.75
2023-10-09T02:43:32.293Z,4.13
2023-10-09T02:46:01.087Z,9.70
2023-10-09T02:48:31.866Z,6.45
2023-10-09T02:51:00.060Z,8.70
2023-10-09T02:53:30.918Z,11.60
2023-10-09T02:56:13.788Z,7.18
2023-10-09T02:58:43.969Z,6.40
2023-10-09T03:01:14.570Z,6.93
2023-10-09T03:03:46.813Z,5.70
2023-10-09T03:06:20.266Z,6.25
2023-10-09T03:08:49.169Z,7.63
2023-10-09T03:11:20.080Z,6.97
2023-10-09T03:13:48.735Z,3.58
2023-10-09T03:16:22.639Z,6.25
2023-10-09T03:18:54.550Z,7.82
2023-10-09T03:21:22.823Z,6.68
2023-10-09T03:23:51.540Z,6.78
2023-10-09T03:26:22.690Z,12.55
2023-10-09T03:28:51.460Z,13.07
2023-10-09T03:31:19.496Z,6.28
2023-10-09T03:33:48.472Z,9.27
2023-10-09T03:36:18.055Z,3.53
2023-10-09T03:38:46.039Z,6.40
2023-10-09T03:41:17.377Z,7.25
2023-10-09T03:43:47.506Z,6.65
2023-10-09T03:46:21.941Z,6.60
2023-10-09T03:48:50.160Z,6.07
2023-10-09T03:51:22.628Z,6.78
2023-10-09T03:53:51.958Z,4.97
2023-10-09T03:56:22.252Z,7.43
2023-10-09T03:58:54.428Z,5.35
2023-10-09T04:01:29.488Z,6.60
2023-10-09T04:04:01.347Z,5.97
2023-10-09T04:06:33.200Z,6.47
2023-10-09T04:09:15.214Z,8.05
2023-10-09T04:11:44.411Z,4.88
2023-10-09T04:14:26.004Z,6.07
2023-10-09T04:17:05.098Z,6.07
2023-10-09T04:19:40.279Z,5.50
2023-10-09T04:22:10.148Z,4.00
2023-10-09T04:24:42.654Z,8.98
2023-10-09T04:27:10.807Z,8.13
2023-10-09T04:29:40.683Z,8.05
2023-10-09T04:32:19.062Z,5.43
2023-10-09T04:34:50.676Z,4.93
2023-10-09T04:37:37.930Z,7.65
2023-10-09T04:40:13.268Z,5.10
2023-10-09T04:42:47.905Z,3.50
2023-10-09T04:45:34.082Z,5.07
2023-10-09T04:48:08.077Z,6.05
2023-10-09T04:50:46.598Z,5.82
2023-10-09T04:53:29.944Z,8.18
2023-10-09T04:55:58.457Z,4.80
2023-10-09T04:58:27.515Z,4.88
2023-10-09T05:01:13.878Z,5.82
2023-10-09T05:03:46.313Z,5.25
2023-10-09T05:06:44.105Z,5.00
2023-10-09T05:09:16.130Z,7.90
2023-10-09T05:12:11.012Z,5.47
2023-10-09T05:14:46.652Z,5.90
2023-10-09T05:17:18.849Z,5.30
2023-10-09T05:20:18.651Z,9.23
2023-10-09T05:22:58.180Z,6.20
2023-10-09T05:25:56.748Z,5.50
2023-10-09T05:28:26.844Z,5.68
2023-10-09T05:31:07.546Z,4.13
2023-10-09T05:33:38.252Z,5.97
2023-10-09T05:36:18.473Z,5.28
2023-10-09T05:38:59.752Z,5.93
2023-10-09T05:41:48.676Z,5.68
2023-10-09T05:44:34.219Z,8.45
2023-10-09T05:47:34.318Z,5.68
2023-10-09T05:50:17.610Z,9.88
2023-10-09T05:53:06.574Z,9.48
2023-10-09T05:55:52.617Z,6.18
2023-10-09T05:59:04.794Z,4.65
2023-10-09T06:01:50.241Z,3.90
2023-10-09T06:04:19.263Z,7.15
2023-10-09T06:06:57.672Z,6.13
2023-10-09T06:09:49.772Z,5.10
2023-10-09T06:12:53.130Z,5.53
2023-10-09T06:15:33.884Z,6.55
2023-10-09T06:18:22.321Z,6.93
2023-10-09T06:21:09.683Z,8.23
2023-10-09T06:24:07.974Z,6.90
2023-10-09T06:26:36.024Z,7.10
2023-10-09T06:29:17.694Z,7.13
2023-10-09T06:32:00.537Z,5.18
2023-10-09T06:34:36.306Z,6.82
2023-10-09T06:37:07.822Z,9.65
2023-10-09T06:40:13.268Z,5.90
2023-10-09T06:42:45.529Z,7.35
2023-10-09T06:45:17.487Z,8.20
2023-10-09T06:47:57.346Z,8.48
2023-10-09T06:50:48.241Z,6.13
2023-10-09T06:53:26.429Z,5.78
2023-10-09T06:56:06.822Z,7.13
2023-10-09T06:58:43.351Z,7.22
2023-10-09T07:01:29.478Z,7.22
2023-10-09T07:04:19.879Z,6.47
2023-10-09T07:06:52.167Z,5.75
2023-10-09T07:09:23.585Z,6.22
2023-10-09T07:12:05.078Z,6.53
2023-10-09T07:14:51.207Z,4.03
2023-10-09T07:17:24.438Z,8.10
2023-10-09T07:20:09.936Z,5.20
2023-10-09T07:22:53.699Z,5.82
2023-10-09T07:25:43.250Z,6.30
2023-10-09T07:28:37.955Z,6.43
2023-10-09T07:31:10.199Z,7.88
2023-10-09T07:36:39.418Z,5.38
2023-10-09T07:39:25.008Z,5.78
2023-10-09T07:42:03.165Z,8.48
2023-10-09T07:44:37.993Z,6.22
2023-10-09T07:47:18.184Z,11.05
2023-10-09T07:49:53.475Z,8.20
2023-10-09T07:52:27.438Z,5.80
2023-10-09T07:55:02.869Z,7.35
2023-10-09T07:57:40.709Z,5.40
2023-10-09T08:00:29.558Z,9.70
2023-10-09T08:03:01.663Z,6.18
2023-10-09T08:05:34.475Z,6.38
2023-10-09T08:08:40.431Z,8.20
2023-10-09T08:11:28.714Z,9.95
2023-10-09T08:14:02.175Z,9.60
2023-10-09T08:16:37.695Z,8.02
2023-10-09T08:19:32.022Z,8.30
2023-10-09T08:22:17.365Z,7.95
2023-10-09T08:24:57.043Z,7.95
2023-10-09T08:27:48.319Z,10.20
2023-10-09T08:30:30.707Z,6.53
2023-10-09T08:35:44.358Z,8.73
2023-10-09T08:38:12.608Z,7.85
2023-10-09T08:40:44.323Z,7.47
2023-10-09T08:43:15.895Z,6.93
2023-10-09T08:45:47.890Z,10.20
2023-10-09T08:48:17.600Z,7.78
2023-10-09T08:50:47.110Z,8.13
2023-10-09T08:53:17.299Z,7.78
2023-10-09T08:55:47.512Z,6.57
2023-10-09T08:58:20.563Z,6.60
2023-10-09T09:00:49.132Z,7.25
2023-10-09T09:03:18.355Z,8.32
2023-10-09T09:05:50.817Z,6.95
2023-10-09T09:08:29.744Z,5.70
2023-10-09T09:11:12.912Z,8.63
2023-10-09T09:13:43.358Z,7.93
2023-10-09T09:16:22.725Z,8.52
2023-10-09T09:19:02.034Z,9.60
2023-10-09T09:21:30.352Z,10.80
2023-10-09T09:24:02.278Z,6.72
2023-10-09T09:26:46.522Z,9.25
2023-10-09T09:29:15.607Z,5.38
2023-10-09T09:31:55.038Z,9.40
2023-10-09T09:34:27.110Z,10.27
2023-10-09T09:36:57.451Z,9.43
2023-10-09T09:39:42.018Z,8.82
2023-10-09T09:42:15.933Z,11.10
2023-10-09T09:44:47.086Z,6.43
2023-10-09T09:47:24.971Z,7.32
2023-10-09T09:50:00.982Z,8.02
2023-10-09T09:52:39.341Z,7.82
2023-10-09T09:55:15.441Z,8.35
2023-10-09T09:57:52.689Z,7.65
2023-10-09T10:00:31.989Z,6.85
2023-10-09T10:03:07.069Z,6.55
2023-10-09T10:05:37.077Z,9.45
2023-10-09T10:08:13.355Z,10.27
2023-10-09T10:10:51.233Z,7.35
2023-10-09T10:14:07.586Z,7.82
2023-10-09T10:17:17.761Z,9.15
2023-10-09T10:20:26.526Z,8.05
2023-10-09T10:23:20.513Z,6.63
2023-10-09T10:25:51.257Z,8.63
2023-10-09T10:28:40.593Z,9.10
2023-10-09T10:31:10.936Z,9.32
2023-10-09T10:34:11.667Z,7.88
2023-10-09T10:36:43.841Z,7.88
2023-10-09T10:39:13.101Z,10.65
2023-10-09T10:41:52.001Z,9.23
2023-10-09T10:44:39.219Z,10.30
2023-10-09T10:47:23.287Z,10.15
2023-10-09T10:49:59.383Z,8.43
2023-10-09T10:52:43.408Z,8.55
2023-10-09T10:55:31.924Z,11.68
2023-10-09T10:58:03.526Z,6.47
2023-10-09T11:00:51.978Z,8.10
2023-10-09T11:03:25.058Z,7.70
2023-10-09T11:08:33.318Z,9.35
2023-10-09T11:11:19.446Z,11.77
2023-10-09T11:13:57.786Z,8.00
2023-10-09T11:16:44.249Z,10.18
2023-10-09T11:19:30.375Z,7.63
2023-10-09T11:25:14.106Z,10.80
2023-10-09T11:27:51.998Z,9.95
2023-10-09T11:30:33.762Z,9.75
2023-10-09T11:33:15.418Z,10.77
2023-10-09T11:35:46.302Z,8.05
2023-10-09T11:38:22.644Z,11.13
2023-10-09T11:41:06.727Z,11.93
2023-10-09T11:43:54.567Z,8.88
2023-10-09T11:46:38.006Z,12.45
2023-10-09T11:49:21.731Z,9.82
2023-10-09T11:52:10.400Z,10.23
2023-10-09T11:54:37.629Z,9.30
2023-10-09T11:57:06.995Z,7.53
2023-10-09T11:59:38.947Z,9.65
2023-10-09T12:02:07.277Z,9.98
2023-10-09T12:04:35.343Z,9.43
2023-10-09T12:07:08.698Z,10.95
2023-10-09T12:12:07.472Z,9.82
2023-10-09T12:14:36.118Z,11.27
2023-10-09T12:17:06.806Z,10.50
2023-10-09T12:19:35.455Z,8.15
2023-10-09T12:22:05.038Z,14.35
2023-10-09T12:24:34.228Z,12.52
2023-10-09T12:27:02.617Z,11.15
2023-10-09T12:29:31.990Z,10.45
2023-10-09T12:32:00.305Z,8.50
2023-10-09T12:34:28.857Z,11.48
2023-10-09T12:36:57.134Z,9.95
2023-10-09T12:39:25.071Z,10.93
2023-10-09T12:41:54.714Z,9.50
2023-10-09T12:44:22.734Z,7.80
2023-10-09T12:46:54.264Z,9.98
2023-10-09T12:49:26.400Z,11.23
2023-10-09T12:51:54.919Z,12.82
2023-10-09T12:54:27.986Z,9.98
2023-10-09T12:59:25.427Z,16.70
2023-10-09T13:01:59.034Z,13.57
2023-10-09T13:04:33.895Z,12.75
2023-10-09T13:07:05.642Z,14.55
2023-10-09T13:09:37.311Z,13.02
2023-10-09T13:12:05.513Z,17.40
2023-10-09T13:14:35.233Z,13.95
2023-10-09T13:17:11.219Z,13.23
2023-10-09T13:19:39.625Z,13.63
2023-10-09T13:22:14.086Z,16.15
2023-10-09T13:24:42.986Z,13.05
2023-10-09T13:27:11.856Z,16.95
2023-10-09T13:29:41.750Z,17.90
2023-10-09T13:32:16.254Z,16.75
2023-10-09T13:34:45.892Z,14.40
2023-10-09T13:37:14.919Z,14.27
2023-10-09T13:39:53.266Z,13.13
2023-10-09T13:42:26.026Z,12.30
2023-10-09T13:44:55.140Z,13.65
2023-10-09T13:47:30.468Z,14.50
2023-10-09T13:49:58.873Z,15.07
2023-10-09T13:52:28.141Z,15.18
2023-10-09T13:54:56.280Z,14.82
2023-10-09T13:57:32.350Z,15.63
2023-10-09T14:00:01.326Z,14.02
2023-10-09T14:02:30.929Z,14.93
2023-10-09T14:05:01.972Z,15.68
2023-10-09T14:07:30.137Z,11.57
2023-10-09T14:10:08.314Z,13.43
2023-10-09T14:12:41.254Z,13.13
2023-10-09T14:15:12.582Z,13.20
2023-10-09T14:17:44.054Z,14.85
2023-10-09T14:23:08.578Z,13.98
2023-10-09T14:25:38.750Z,13.20
2023-10-09T14:28:08.706Z,16.77
2023-10-09T14:30:42.986Z,11.77
2023-10-09T14:33:14.366Z,12.23
2023-10-09T14:35:43.079Z,13.02
2023-10-09T14:38:13.850Z,12.82
2023-10-09T14:40:45.179Z,11.07
2023-10-09T14:43:20.155Z,16.65
2023-10-09T14:45:50.678Z,12.13
2023-10-09T14:48:19.659Z,14.63
2023-10-09T14:50:54.054Z,12.57
2023-10-09T14:53:28.015Z,12.50
2023-10-09T14:56:00.765Z,12.25
2023-10-09T14:58:30.281Z,10.82
2023-10-09T15:00:58.998Z,11.18
2023-10-09T15:03:29.391Z,11.57
2023-10-09T15:05:57.346Z,11.50
2023-10-09T15:08:28.426Z,10.10
2023-10-09T15:10:57.459Z,14.57
2023-10-09T15:13:28.892Z,14.10
2023-10-09T15:15:57.434Z,13.25
2023-10-09T15:18:26.637Z,12.98
2023-10-09T15:20:54.652Z,15.30
2023-10-09T15:23:22.542Z,14.13
2023-10-09T15:25:53.238Z,14.77
2023-10-09T15:28:21.972Z,11.80
2023-10-09T15:30:50.622Z,12.80
2023-10-09T15:33:19.917Z,10.85
2023-10-09T15:35:48.967Z,11.57
2023-10-09T15:38:16.975Z,14.75
2023-10-09T15:40:45.359Z,13.88
2023-10-09T15:43:15.213Z,12.75
2023-10-09T15:45:43.716Z,13.10
2023-10-09T15:48:12.575Z,11.95
2023-10-09T15:50:41.083Z,11.00
2023-10-09T15:53:09.563Z,13.52
2023-10-09T15:55:39.304Z,12.82
2023-10-09T15:58:09.860Z,10.95
2023-10-09T16:00:40.567Z,13.43
2023-10-09T16:03:11.177Z,15.32
2023-10-09T16:05:41.874Z,13.05
2023-10-09T16:08:10.663Z,13.65
2023-10-09T16:10:38.791Z,11.77
2023-10-09T16:13:11.023Z,11.90
2023-10-09T16:15:45.322Z,14.07
2023-10-09T16:18:13.355Z,13.65
2023-10-09T16:20:41.295Z,11.48
2023-10-09T16:23:10.844Z,16.65
2023-10-09T16:25:40.044Z,11.25
2023-10-09T16:28:09.876Z,18.23
2023-10-09T16:30:38.297Z,15.20
2023-10-09T16:33:09.439Z,12.25
2023-10-09T16:35:38.850Z,16.65
2023-10-09T16:38:13.153Z,14.35
2023-10-09T16:40:47.933Z,14.75
2023-10-09T16:43:16.121Z,14.05
2023-10-09T16:45:44.935Z,14.77
2023-10-09T16:48:16.370Z,17.05
2023-10-09T16:50:47.962Z,18.73
2023-10-09T16:53:17.942Z,15.40
2023-10-09T16:55:46.291Z,17.42
2023-10-09T16:58:16.447Z,16.13
2023-10-09T17:00:47.499Z,18.10
2023-10-09T17:03:18.680Z,23.35
2023-10-09T17:05:59.065Z,16.13
2023-10-09T17:08:30.829Z,12.70
2023-10-09T17:10:59.213Z,16.25
2023-10-09T17:13:27.624Z,17.77
2023-10-09T17:15:55.890Z,18.05
2023-10-09T17:18:26.457Z,15.68
2023-10-09T17:20:55.909Z,16.17
2023-10-09T17:23:24.049Z,16.25
2023-10-09T17:25:59.001Z,16.35
2023-10-09T17:28:27.555Z,17.92
2023-10-09T17:31:02.728Z,15.90
2023-10-09T17:33:32.792Z,20.15
2023-10-09T17:36:02.427Z,18.27
2023-10-09T17:38:32.337Z,18.17
2023-10-09T17:41:02.155Z,17.60
2023-10-09T17:43:31.699Z,14.25
2023-10-09T17:45:59.650Z,16.38
2023-10-09T17:48:27.537Z,18.27
2023-10-09T17:50:58.308Z,17.55
2023-10-09T17:53:30.211Z,16.98
2023-10-09T17:55:58.287Z,16.38
2023-10-09T17:58:27.545Z,15.18
2023-10-09T18:00:59.364Z,16.17
2023-10-09T18:03:28.928Z,20.23
2023-10-09T18:05:58.691Z,16.55
2023-10-09T18:08:27.665Z,14.98
2023-10-09T18:11:00.879Z,14.15
2023-10-09T18:13:29.260Z,16.15
2023-10-09T18:16:08.948Z,17.30
2023-10-09T18:18:37.861Z,15.57
2023-10-09T18:21:08.925Z,16.13
2023-10-09T18:23:45.281Z,16.30
2023-10-09T18:26:15.673Z,13.00
2023-10-09T18:28:46.138Z,15.57
2023-10-09T18:31:17.439Z,15.90
2023-10-09T18:33:47.097Z,15.07
2023-10-09T18:36:19.018Z,17.20
2023-10-09T18:38:52.053Z,17.05
2023-10-09T18:43:50.415Z,16.58
2023-10-09T18:46:19.810Z,17.83
2023-10-09T18:48:48.084Z,16.42
2023-10-09T18:51:18.768Z,15.27
2023-10-09T18:53:47.882Z,15.10
2023-10-09T18:56:16.537Z,17.80
2023-10-09T18:58:45.073Z,17.73
2023-10-09T19:01:15.011Z,15.93
2023-10-09T19:03:43.296Z,12.88
2023-10-09T19:06:13.663Z,17.25
2023-10-09T19:08:42.955Z,18.73
2023-10-09T19:11:11.439Z,21.35
2023-10-09T19:13:40.740Z,20.42
2023-10-09T19:16:09.867Z,16.85
2023-10-09T19:18:39.076Z,13.77
2023-10-09T19:21:09.681Z,16.55
2023-10-09T19:23:37.922Z,17.13
2023-10-09T19:26:07.940Z,16.95
2023-10-09T19:28:38.986Z,19.13
2023-10-09T19:31:09.479Z,14.77
2023-10-09T19:33:38.957Z,14.80
2023-10-09T19:36:12.409Z,14.30
2023-10-09T19:38:40.799Z,18.10
2023-10-09T19:41:12.127Z,18.63
2023-10-09T19:43:40.138Z,16.33
2023-10-09T19:46:09.089Z,13.82
2023-10-09T19:48:37.157Z,17.60
2023-10-09T19:51:06.339Z,19.65
2023-10-09T19:53:37.526Z,18.42
2023-10-09T19:56:09.900Z,14.63
2023-10-09T19:58:40.996Z,18.35
2023-10-09T20:01:09.744Z,19.30
2023-10-09T20:03:37.724Z,15.45
2023-10-09T20:06:06.507Z,14.75
2023-10-09T20:08:35.481Z,15.95
2023-10-09T20:11:08.812Z,17.30
2023-10-09T20:16:09.314Z,16.52
2023-10-09T20:18:37.564Z,18.70
2023-10-09T20:21:10.740Z,19.23
2023-10-09T20:23:42.179Z,18.55
2023-10-09T20:26:15.800Z,16.38
2023-10-09T20:28:44.628Z,17.65
2023-10-09T20:31:14.141Z,19.23
2023-10-09T20:33:43.648Z,19.55
2023-10-09T20:36:16.764Z,18.92
2023-10-09T20:38:47.668Z,18.20
2023-10-09T20:41:17.260Z,16.88
2023-10-09T20:43:45.384Z,20.65
2023-10-09T20:46:16.621Z,20.63
2023-10-09T20:48:46.156Z,18.17
2023-10-09T20:51:16.196Z,20.65
2023-10-09T20:53:44.636Z,19.52
2023-10-09T20:56:12.795Z,20.50
2023-10-09T20:58:42.420Z,20.80
2023-10-09T21:01:15.657Z,19.05
2023-10-09T21:03:47.171Z,19.25
2023-10-09T21:06:15.596Z,18.90
2023-10-09T21:08:43.899Z,19.73
2023-10-09T21:11:11.940Z,21.02
2023-10-09T21:13:40.798Z,24.25
2023-10-09T21:16:13.001Z,23.15
2023-10-09T21:18:41.483Z,26.07
2023-10-09T21:21:13.555Z,26.77
2023-10-09T21:23:42.591Z,23.17
2023-10-09T21:26:17.068Z,19.95
2023-10-09T21:28:45.326Z,24.67
2023-10-09T21:31:13.818Z,24.48
2023-10-09T21:33:41.749Z,23.60
2023-10-09T21:36:11.266Z,23.02
2023-10-09T21:38:39.788Z,24.00
2023-10-09T21:41:13.365Z,28.52
2023-10-09T21:43:41.610Z,28.52
2023-10-09T21:46:10.756Z,26.67
2023-10-09T21:48:39.985Z,24.35
2023-10-09T21:51:09.821Z,22.98
2023-10-09T21:53:40.752Z,25.27
2023-10-09T21:56:10.370Z,21.92
2023-10-09T21:58:39.185Z,26.10
2023-10-09T22:01:09.452Z,25.60
2023-10-09T22:03:37.860Z,23.50
2023-10-09T22:06:06.545Z,24.42
2023-10-09T22:08:35.143Z,21.98
2023-10-09T22:11:04.553Z,21.58
2023-10-09T22:13:32.496Z,22.05
2023-10-09T22:16:00.888Z,20.30
2023-10-09T22:18:30.848Z,17.55
2023-10-09T22:20:58.895Z,19.25
2023-10-09T22:23:34.393Z,27.42
2023-10-09T22:26:05.070Z,19.77
2023-10-09T22:28:34.708Z,23.92
2023-10-09T22:31:05.149Z,23.92
2023-10-09T22:33:47.022Z,24.30
2023-10-09T22:36:28.514Z,22.67
2023-10-09T22:39:06.416Z,24.40
2023-10-09T22:41:36.579Z,20.98
2023-10-09T22:44:11.683Z,19.25
2023-10-09T22:46:41.859Z,18.92
2023-10-09T22:49:15.841Z,20.48
2023-10-09T22:51:51.429Z,21.95
2023-10-09T22:54:24.339Z,18.90
2023-10-09T22:56:56.245Z,18.42
2023-10-09T22:59:27.887Z,17.00
2023-10-09T23:02:00.414Z,18.20
2023-10-09T23:04:39.064Z,18.33
2023-10-09T23:07:15.660Z,19.02
2023-10-09T23:09:50.904Z,17.33
2023-10-09T23:12:26.913Z,20.52
2023-10-09T23:14:57.053Z,16.23
2023-10-09T23:17:45.160Z,17.77
2023-10-09T23:20:17.984Z,18.20
2023-10-09T23:22:52.267Z,18.98
2023-10-09T23:25:31.071Z,19.65
2023-10-09T23:28:14.475Z,17.60
2023-10-09T23:30:44.249Z,18.52
2023-10-09T23:33:21.689Z,19.63
2023-10-09T23:35:56.421Z,18.55
2023-10-09T23:38:33.304Z,18.88
2023-10-09T23:41:04.944Z,18.80
2023-10-09T23:43:36.493Z,19.17
2023-10-09T23:46:09.137Z,15.82
2023-10-09T23:48:38.601Z,18.55
2023-10-09T23:51:13.336Z,16.52
2023-10-09T23:53:47.630Z,19.75
2023-10-09T23:56:36.048Z,13.60
2023-10-09T23:59:12.174Z,16.35
